createdAt,value
2019-02-16T00:00:26.350Z,18.17
2019-02-16T00:01:25.579Z,18.18
2019-02-16T00:02:25.820Z,18.17
2019-02-16T00:03:25.560Z,18.16
2019-02-16T00:04:25.128Z,18.17
2019-02-16T00:05:26.815Z,18.16
2019-02-16T00:06:26.392Z,18.15
2019-02-16T00:07:25.171Z,18.15
2019-02-16T00:08:25.027Z,18.14
2019-02-16T00:09:25.117Z,18.14
2019-02-16T00:10:25.403Z,18.14
2019-02-16T00:11:25.927Z,18.14
2019-02-16T00:12:25.413Z,18.12
2019-02-16T00:13:25.255Z,18.11
2019-02-16T00:14:24.968Z,18.11
2019-02-16T00:15:25.435Z,18.1
2019-02-16T00:16:25.238Z,18.11
2019-02-16T00:17:24.945Z,18.1
2019-02-16T00:18:25.264Z,18.1
2019-02-16T00:19:25.304Z,18.1
2019-02-16T00:20:25.105Z,18.1
2019-02-16T00:21:27.224Z,18.1
2019-02-16T00:22:24.789Z,18.09
2019-02-16T00:23:24.787Z,18.08
2019-02-16T00:24:25.394Z,18.08
2019-02-16T00:25:25.392Z,18.07
2019-02-16T00:26:25.163Z,18.07
2019-02-16T00:27:25.419Z,18.06
2019-02-16T00:28:25.542Z,18.06
2019-02-16T00:29:26.101Z,18.05
2019-02-16T00:30:25.075Z,18.05
2019-02-16T00:31:25.542Z,18.05
2019-02-16T00:32:25.065Z,18.04
2019-02-16T00:33:25.003Z,18.04
2019-02-16T00:34:25.380Z,18.04
2019-02-16T00:35:25.214Z,18.04
2019-02-16T00:36:25.625Z,18.02
2019-02-16T00:37:25.395Z,18.02
2019-02-16T00:38:25.334Z,18.02
2019-02-16T00:39:25.345Z,18.01
2019-02-16T00:40:25.230Z,18
2019-02-16T00:41:25.088Z,18
2019-02-16T00:42:24.944Z,18
2019-02-16T00:43:25.957Z,17.99
2019-02-16T00:44:26.405Z,17.98
2019-02-16T00:45:25.433Z,17.98
2019-02-16T00:46:26.001Z,17.98
2019-02-16T00:47:25.315Z,17.98
2019-02-16T00:48:25.371Z,17.98
2019-02-16T00:49:25.257Z,17.98
2019-02-16T00:50:25.248Z,17.98
2019-02-16T00:51:25.543Z,17.97
2019-02-16T00:52:25.304Z,17.97
2019-02-16T00:53:24.933Z,17.95
2019-02-16T00:54:25.868Z,17.95
2019-02-16T00:55:25.212Z,17.94
2019-02-16T00:56:25.971Z,17.95
2019-02-16T00:57:25.719Z,17.94
2019-02-16T00:58:25.093Z,17.94
2019-02-16T00:59:28.358Z,17.93
2019-02-16T01:00:25.111Z,17.93
2019-02-16T01:01:25.266Z,17.93
2019-02-16T01:02:25.299Z,17.92
2019-02-16T01:03:25.025Z,17.92
2019-02-16T01:04:25.067Z,17.92
2019-02-16T01:05:26.106Z,17.91
2019-02-16T01:06:25.799Z,17.91
2019-02-16T01:07:26.575Z,17.91
2019-02-16T01:08:25.015Z,17.91
2019-02-16T01:09:25.028Z,17.9
2019-02-16T01:10:26.123Z,17.89
2019-02-16T01:11:25.193Z,17.87
2019-02-16T01:12:25.439Z,17.87
2019-02-16T01:13:25.330Z,17.87
2019-02-16T01:14:24.870Z,17.88
2019-02-16T01:15:25.275Z,17.87
2019-02-16T01:16:24.926Z,17.86
2019-02-16T01:17:25.313Z,17.86
2019-02-16T01:18:25.029Z,17.86
2019-02-16T01:19:25.180Z,17.86
2019-02-16T01:20:25.065Z,17.85
2019-02-16T01:21:25.187Z,17.85
2019-02-16T01:22:25.306Z,17.84
2019-02-16T01:23:26.780Z,17.83
2019-02-16T01:24:24.849Z,17.84
2019-02-16T01:25:25.018Z,17.84
2019-02-16T01:26:24.938Z,17.83
2019-02-16T01:27:24.882Z,17.82
2019-02-16T01:28:24.734Z,17.83
2019-02-16T01:29:24.881Z,17.83
2019-02-16T01:30:25.697Z,17.82
2019-02-16T01:31:25.823Z,17.82
2019-02-16T01:32:25.158Z,17.82
2019-02-16T01:33:26.962Z,17.8
2019-02-16T01:34:24.773Z,17.81
2019-02-16T01:35:24.903Z,17.81
2019-02-16T01:36:24.799Z,17.8
2019-02-16T01:37:24.852Z,17.8
2019-02-16T01:38:25.381Z,17.8
2019-02-16T01:39:25.468Z,17.79
2019-02-16T01:40:25.938Z,17.79
2019-02-16T01:41:25.872Z,17.79
2019-02-16T01:42:25.127Z,17.79
2019-02-16T01:43:24.930Z,17.79
2019-02-16T01:44:25.127Z,17.79
2019-02-16T01:45:24.953Z,17.78
2019-02-16T01:46:25.094Z,17.78
2019-02-16T01:47:26.415Z,17.78
2019-02-16T01:48:26.009Z,17.77
2019-02-16T01:49:25.895Z,17.77
2019-02-16T01:50:26.017Z,17.76
2019-02-16T01:51:32.442Z,17.75
2019-02-16T01:52:24.982Z,17.75
2019-02-16T01:53:25.418Z,17.75
2019-02-16T01:54:26.780Z,17.75
2019-02-16T01:55:25.241Z,17.74
2019-02-16T01:56:26.954Z,17.74
2019-02-16T01:57:25.436Z,17.74
2019-02-16T01:58:25.341Z,17.73
2019-02-16T01:59:25.278Z,17.73
2019-02-16T02:00:25.231Z,17.73
2019-02-16T02:01:25.449Z,17.73
2019-02-16T02:02:25.118Z,17.72
2019-02-16T02:03:25.486Z,17.73
2019-02-16T02:04:25.247Z,17.73
2019-02-16T02:05:25.148Z,17.73
2019-02-16T02:06:25.222Z,17.73
2019-02-16T02:07:25.224Z,17.72
2019-02-16T02:08:25.743Z,17.71
2019-02-16T02:09:25.574Z,17.7
2019-02-16T02:10:25.662Z,17.71
2019-02-16T02:11:26.137Z,17.71
2019-02-16T02:12:25.253Z,17.7
2019-02-16T02:13:25.072Z,17.7
2019-02-16T02:14:25.590Z,17.69
2019-02-16T02:15:25.105Z,17.69
2019-02-16T02:16:25.667Z,17.69
2019-02-16T02:17:25.404Z,17.69
2019-02-16T02:18:26.824Z,17.69
2019-02-16T02:19:25.166Z,17.68
2019-02-16T02:20:25.304Z,17.68
2019-02-16T02:21:25.392Z,17.68
2019-02-16T02:22:25.047Z,17.68
2019-02-16T02:23:24.886Z,17.68
2019-02-16T02:24:25.211Z,17.67
2019-02-16T02:25:25.206Z,17.67
2019-02-16T02:26:25.497Z,17.67
2019-02-16T02:27:25.948Z,17.66
2019-02-16T02:28:25.371Z,17.66
2019-02-16T02:29:25.211Z,17.66
2019-02-16T02:30:25.417Z,17.65
2019-02-16T02:31:24.895Z,17.65
2019-02-16T02:32:25.209Z,17.65
2019-02-16T02:33:25.806Z,17.64
2019-02-16T02:34:25.176Z,17.64
2019-02-16T02:35:26.075Z,17.63
2019-02-16T02:36:25.362Z,17.63
2019-02-16T02:37:25.897Z,17.62
2019-02-16T02:38:25.277Z,17.63
2019-02-16T02:39:25.255Z,17.62
2019-02-16T02:40:25.862Z,17.62
2019-02-16T02:41:24.951Z,17.61
2019-02-16T02:42:25.289Z,17.61
2019-02-16T02:43:25.399Z,17.61
2019-02-16T02:44:25.890Z,17.61
2019-02-16T02:45:25.125Z,17.61
2019-02-16T02:46:25.617Z,17.6
2019-02-16T02:47:25.432Z,17.6
2019-02-16T02:48:24.963Z,17.59
2019-02-16T02:49:25.168Z,17.59
2019-02-16T02:50:25.205Z,17.59
2019-02-16T02:51:25.910Z,17.59
2019-02-16T02:52:25.080Z,17.58
2019-02-16T02:53:32.063Z,17.58
2019-02-16T02:54:25.749Z,17.58
2019-02-16T02:55:25.776Z,17.58
2019-02-16T02:56:26.751Z,17.57
2019-02-16T02:57:24.868Z,17.57
2019-02-16T02:58:25.249Z,17.57
2019-02-16T02:59:25.227Z,17.57
2019-02-16T03:00:24.951Z,17.56
2019-02-16T03:01:25.891Z,17.56
2019-02-16T03:02:25.250Z,17.56
2019-02-16T03:03:25.317Z,17.55
2019-02-16T03:04:25.123Z,17.55
2019-02-16T03:05:25.002Z,17.54
2019-02-16T03:06:25.753Z,17.54
2019-02-16T03:07:25.166Z,17.54
2019-02-16T03:08:25.484Z,17.54
2019-02-16T03:09:24.924Z,17.54
2019-02-16T03:10:25.245Z,17.54
2019-02-16T03:11:24.842Z,17.54
2019-02-16T03:12:25.808Z,17.53
2019-02-16T03:13:25.414Z,17.53
2019-02-16T03:14:25.334Z,17.52
2019-02-16T03:15:25.402Z,17.53
2019-02-16T03:16:27.036Z,17.52
2019-02-16T03:17:25.853Z,17.52
2019-02-16T03:18:25.154Z,17.51
2019-02-16T03:19:25.734Z,17.51
2019-02-16T03:20:25.267Z,17.51
2019-02-16T03:21:25.969Z,17.51
2019-02-16T03:22:25.079Z,17.5
2019-02-16T03:23:24.907Z,17.5
2019-02-16T03:24:25.189Z,17.5
2019-02-16T03:25:25.116Z,17.49
2019-02-16T03:26:24.874Z,17.49
2019-02-16T03:27:25.201Z,17.5
2019-02-16T03:28:27.075Z,17.48
2019-02-16T03:29:25.350Z,17.48
2019-02-16T03:30:25.360Z,17.48
2019-02-16T03:31:25.909Z,17.48
2019-02-16T03:32:25.115Z,17.48
2019-02-16T03:33:25.270Z,17.47
2019-02-16T03:34:25.169Z,17.47
2019-02-16T03:35:26.790Z,17.47
2019-02-16T03:36:25.590Z,17.46
2019-02-16T03:37:25.031Z,17.47
2019-02-16T03:38:25.470Z,17.46
2019-02-16T03:39:25.953Z,17.45
2019-02-16T03:40:24.788Z,17.45
2019-02-16T03:41:24.833Z,17.44
2019-02-16T03:42:25.503Z,17.44
2019-02-16T03:43:25.120Z,17.44
2019-02-16T03:44:25.425Z,17.44
2019-02-16T03:45:25.308Z,17.43
2019-02-16T03:46:25.388Z,17.42
2019-02-16T03:47:25.262Z,17.43
2019-02-16T03:48:25.130Z,17.42
2019-02-16T03:49:25.147Z,17.42
2019-02-16T03:50:25.316Z,17.42
2019-02-16T03:51:24.969Z,17.42
2019-02-16T03:52:25.744Z,17.42
2019-02-16T03:53:25.266Z,17.42
2019-02-16T03:54:25.635Z,17.41
2019-02-16T03:55:24.842Z,17.41
2019-02-16T03:56:25.393Z,17.41
2019-02-16T03:57:25.192Z,17.4
2019-02-16T03:58:25.172Z,17.41
2019-02-16T03:59:25.786Z,17.4
2019-02-16T04:00:25.997Z,17.4
2019-02-16T04:01:25.726Z,17.39
2019-02-16T04:02:25.411Z,17.39
2019-02-16T04:03:25.128Z,17.39
2019-02-16T04:04:26.862Z,17.39
2019-02-16T04:05:25.700Z,17.38
2019-02-16T04:06:24.952Z,17.37
2019-02-16T04:07:25.158Z,17.37
2019-02-16T04:08:25.681Z,17.37
2019-02-16T04:09:25.134Z,17.37
2019-02-16T04:10:25.190Z,17.37
2019-02-16T04:11:25.103Z,17.37
2019-02-16T04:12:25.294Z,17.36
2019-02-16T04:13:25.138Z,17.36
2019-02-16T04:14:26.902Z,17.36
2019-02-16T04:15:25.043Z,17.36
2019-02-16T04:16:25.422Z,17.36
2019-02-16T04:17:25.243Z,17.36
2019-02-16T04:18:24.976Z,17.36
2019-02-16T04:19:25.910Z,17.35
2019-02-16T04:20:25.049Z,17.35
2019-02-16T04:21:25.068Z,17.35
2019-02-16T04:22:25.959Z,17.35
2019-02-16T04:23:25.505Z,17.35
2019-02-16T04:24:25.508Z,17.34
2019-02-16T04:25:25.285Z,17.34
2019-02-16T04:26:26.706Z,17.34
2019-02-16T04:27:25.240Z,17.32
2019-02-16T04:28:25.267Z,17.33
2019-02-16T04:29:24.963Z,17.33
2019-02-16T04:30:24.883Z,17.33
2019-02-16T04:31:25.351Z,17.32
2019-02-16T04:32:30.022Z,17.31
2019-02-16T04:33:25.001Z,17.31
2019-02-16T04:34:25.264Z,17.31
2019-02-16T04:35:25.074Z,17.31
2019-02-16T04:36:25.107Z,17.31
2019-02-16T04:37:25.484Z,17.31
2019-02-16T04:38:25.384Z,17.3
2019-02-16T04:39:25.902Z,17.3
2019-02-16T04:40:25.443Z,17.31
2019-02-16T04:41:25.558Z,17.3
2019-02-16T04:42:24.999Z,17.3
2019-02-16T04:43:25.834Z,17.3
2019-02-16T04:44:25.896Z,17.3
2019-02-16T04:45:26.178Z,17.3
2019-02-16T04:46:25.184Z,17.31
2019-02-16T04:47:25.157Z,17.32
2019-02-16T04:48:25.905Z,17.32
2019-02-16T04:49:25.444Z,17.33
2019-02-16T04:50:26.838Z,17.33
2019-02-16T04:51:25.257Z,17.35
2019-02-16T04:52:35.520Z,17.35
2019-02-16T04:53:25.431Z,17.36
2019-02-16T04:54:24.935Z,17.36
2019-02-16T04:55:24.984Z,17.37
2019-02-16T04:56:25.865Z,17.38
2019-02-16T04:57:25.817Z,17.4
2019-02-16T04:58:25.509Z,17.4
2019-02-16T04:59:24.926Z,17.42
2019-02-16T05:00:24.963Z,17.42
2019-02-16T05:01:25.308Z,17.43
2019-02-16T05:02:25.031Z,17.46
2019-02-16T05:03:24.962Z,17.47
2019-02-16T05:04:25.170Z,17.48
2019-02-16T05:05:26.302Z,17.5
2019-02-16T05:06:25.114Z,17.52
2019-02-16T05:07:25.480Z,17.54
2019-02-16T05:08:25.799Z,17.54
2019-02-16T05:09:25.253Z,17.57
2019-02-16T05:10:25.071Z,17.58
2019-02-16T05:11:26.749Z,17.6
2019-02-16T05:12:25.191Z,17.62
2019-02-16T05:13:25.310Z,17.65
2019-02-16T05:14:24.947Z,17.66
2019-02-16T05:15:25.514Z,17.67
2019-02-16T05:16:25.024Z,17.7
2019-02-16T05:17:25.389Z,17.71
2019-02-16T05:18:25.681Z,17.73
2019-02-16T05:19:26.678Z,17.75
2019-02-16T05:20:25.186Z,17.77
2019-02-16T05:21:24.997Z,17.79
2019-02-16T05:22:25.099Z,17.79
2019-02-16T05:23:25.329Z,17.82
2019-02-16T05:24:25.038Z,17.83
2019-02-16T05:25:25.525Z,17.85
2019-02-16T05:26:25.901Z,17.87
2019-02-16T05:27:26.436Z,17.89
2019-02-16T05:28:25.320Z,17.9
2019-02-16T05:29:25.384Z,17.92
2019-02-16T05:30:25.630Z,17.92
2019-02-16T05:31:25.437Z,17.94
2019-02-16T05:32:25.115Z,17.96
2019-02-16T05:33:25.375Z,17.97
2019-02-16T05:34:25.673Z,17.99
2019-02-16T05:35:25.506Z,18
2019-02-16T05:36:26.874Z,18.01
2019-02-16T05:37:24.714Z,18.03
2019-02-16T05:38:24.829Z,18.04
2019-02-16T05:39:25.382Z,18.06
2019-02-16T05:40:25.015Z,18.07
2019-02-16T05:41:25.575Z,18.08
2019-02-16T05:42:25.137Z,18.1
2019-02-16T05:43:26.805Z,18.11
2019-02-16T05:44:25.277Z,18.14
2019-02-16T05:45:24.880Z,18.16
2019-02-16T05:46:26.749Z,18.16
2019-02-16T05:47:25.062Z,18.17
2019-02-16T05:48:25.686Z,18.18
2019-02-16T05:49:24.829Z,18.19
2019-02-16T05:50:25.179Z,18.2
2019-02-16T05:51:25.679Z,18.22
2019-02-16T05:52:25.574Z,18.23
2019-02-16T05:53:26.880Z,18.24
2019-02-16T05:54:25.206Z,18.27
2019-02-16T05:55:25.093Z,18.27
2019-02-16T05:56:26.902Z,18.29
2019-02-16T05:57:24.990Z,18.29
2019-02-16T05:58:25.037Z,18.3
2019-02-16T05:59:24.952Z,18.32
2019-02-16T06:00:25.399Z,18.34
2019-02-16T06:01:25.773Z,18.34
2019-02-16T06:02:25.053Z,18.34
2019-02-16T06:03:25.187Z,18.35
2019-02-16T06:04:25.167Z,18.36
2019-02-16T06:05:26.895Z,18.37
2019-02-16T06:06:25.386Z,18.38
2019-02-16T06:07:24.844Z,18.4
2019-02-16T06:08:26.941Z,18.41
2019-02-16T06:09:25.739Z,18.43
2019-02-16T06:10:25.328Z,18.42
2019-02-16T06:11:25.157Z,18.44
2019-02-16T06:12:25.012Z,18.45
2019-02-16T06:13:25.819Z,18.45
2019-02-16T06:14:25.248Z,18.46
2019-02-16T06:15:25.787Z,18.49
2019-02-16T06:16:25.272Z,18.49
2019-02-16T06:17:25.142Z,18.51
2019-02-16T06:18:25.062Z,18.51
2019-02-16T06:19:25.330Z,18.52
2019-02-16T06:20:24.784Z,18.53
2019-02-16T06:21:25.552Z,18.54
2019-02-16T06:22:26.773Z,18.54
2019-02-16T06:23:25.025Z,18.55
2019-02-16T06:24:25.449Z,18.57
2019-02-16T06:25:25.456Z,18.57
2019-02-16T06:26:25.738Z,18.59
2019-02-16T06:27:25.506Z,18.6
2019-02-16T06:28:24.811Z,18.6
2019-02-16T06:29:24.831Z,18.61
2019-02-16T06:30:25.164Z,18.62
2019-02-16T06:31:25.588Z,18.62
2019-02-16T06:32:26.646Z,18.63
2019-02-16T06:33:26.198Z,18.64
2019-02-16T06:34:25.010Z,18.66
2019-02-16T06:35:25.106Z,18.66
2019-02-16T06:36:24.987Z,18.68
2019-02-16T06:37:25.184Z,18.68
2019-02-16T06:38:24.966Z,18.69
2019-02-16T06:39:25.112Z,18.7
2019-02-16T06:40:24.815Z,18.7
2019-02-16T06:41:25.030Z,18.72
2019-02-16T06:42:25.073Z,18.73
2019-02-16T06:43:25.195Z,18.74
2019-02-16T06:44:24.914Z,18.75
2019-02-16T06:45:26.842Z,18.76
2019-02-16T06:46:25.159Z,18.77
2019-02-16T06:47:25.163Z,18.78
2019-02-16T06:48:25.908Z,18.78
2019-02-16T06:49:25.276Z,18.78
2019-02-16T06:50:25.110Z,18.8
2019-02-16T06:51:26.891Z,18.81
2019-02-16T06:52:25.603Z,18.83
2019-02-16T06:53:25.912Z,18.66
2019-02-16T06:54:25.334Z,18.41
2019-02-16T06:55:25.032Z,18.26
2019-02-16T06:56:25.080Z,18.1
2019-02-16T06:57:25.189Z,17.97
2019-02-16T06:58:25.119Z,17.84
2019-02-16T06:59:25.299Z,17.92
2019-02-16T07:00:25.371Z,18.04
2019-02-16T07:01:24.845Z,18.11
2019-02-16T07:02:24.937Z,18.17
2019-02-16T07:03:25.467Z,18.23
2019-02-16T07:04:26.716Z,18.27
2019-02-16T07:05:24.951Z,18.31
2019-02-16T07:06:24.686Z,18.35
2019-02-16T07:07:25.213Z,18.37
2019-02-16T07:08:25.420Z,18.4
2019-02-16T07:09:24.966Z,18.43
2019-02-16T07:10:24.872Z,18.45
2019-02-16T07:11:24.957Z,18.46
2019-02-16T07:12:24.847Z,18.48
2019-02-16T07:13:24.773Z,18.5
2019-02-16T07:14:26.600Z,18.52
2019-02-16T07:15:25.796Z,18.53
2019-02-16T07:16:24.942Z,18.55
2019-02-16T07:17:25.290Z,18.56
2019-02-16T07:18:25.100Z,18.57
2019-02-16T07:19:24.927Z,18.57
2019-02-16T07:20:25.301Z,18.58
2019-02-16T07:21:25.124Z,18.59
2019-02-16T07:22:25.171Z,18.59
2019-02-16T07:23:25.337Z,18.59
2019-02-16T07:24:26.685Z,18.6
2019-02-16T07:25:25.553Z,18.6
2019-02-16T07:26:25.020Z,18.6
2019-02-16T07:27:25.335Z,18.6
2019-02-16T07:28:25.297Z,18.6
2019-02-16T07:29:25.470Z,18.61
2019-02-16T07:30:24.986Z,18.62
2019-02-16T07:31:25.482Z,18.6
2019-02-16T07:32:25.174Z,18.6
2019-02-16T07:33:24.975Z,18.6
2019-02-16T07:34:26.743Z,18.6
2019-02-16T07:35:26.126Z,18.6
2019-02-16T07:36:25.764Z,18.6
2019-02-16T07:37:25.041Z,18.6
2019-02-16T07:38:24.887Z,18.6
2019-02-16T07:39:25.157Z,18.61
2019-02-16T07:40:25.451Z,18.6
2019-02-16T07:41:25.403Z,18.59
2019-02-16T07:42:25.261Z,18.6
2019-02-16T07:43:25.075Z,18.58
2019-02-16T07:44:24.763Z,18.59
2019-02-16T07:45:25.267Z,18.59
2019-02-16T07:46:25.376Z,18.57
2019-02-16T07:47:24.973Z,18.57
2019-02-16T07:48:24.843Z,18.57
2019-02-16T07:49:24.940Z,18.57
2019-02-16T07:50:25.614Z,18.57
2019-02-16T07:51:25.190Z,18.55
2019-02-16T07:52:25.153Z,18.54
2019-02-16T07:53:31.882Z,18.54
2019-02-16T07:54:24.879Z,18.54
2019-02-16T07:55:25.912Z,18.54
2019-02-16T07:56:25.051Z,18.54
2019-02-16T07:57:25.997Z,18.54
2019-02-16T07:58:24.959Z,18.54
2019-02-16T07:59:24.915Z,18.52
2019-02-16T08:00:25.168Z,18.52
2019-02-16T08:01:25.199Z,18.51
2019-02-16T08:02:24.801Z,18.51
2019-02-16T08:03:25.588Z,18.5
2019-02-16T08:04:25.810Z,18.49
2019-02-16T08:05:24.943Z,18.49
2019-02-16T08:06:25.349Z,18.5
2019-02-16T08:07:24.815Z,18.48
2019-02-16T08:08:25.168Z,18.48
2019-02-16T08:09:25.643Z,18.48
2019-02-16T08:10:24.934Z,18.47
2019-02-16T08:11:24.800Z,18.48
2019-02-16T08:12:24.838Z,18.48
2019-02-16T08:13:25.877Z,18.46
2019-02-16T08:14:25.396Z,18.47
2019-02-16T08:15:24.896Z,18.47
2019-02-16T08:16:24.897Z,18.46
2019-02-16T08:17:25.313Z,18.46
2019-02-16T08:18:25.537Z,18.47
2019-02-16T08:19:26.039Z,18.47
2019-02-16T08:20:26.786Z,18.48
2019-02-16T08:21:24.806Z,18.48
2019-02-16T08:22:24.956Z,18.47
2019-02-16T08:23:24.991Z,18.48
2019-02-16T08:24:25.278Z,18.47
2019-02-16T08:25:25.267Z,18.47
2019-02-16T08:26:24.804Z,18.48
2019-02-16T08:27:24.896Z,18.47
2019-02-16T08:28:24.900Z,18.48
2019-02-16T08:29:24.956Z,18.46
2019-02-16T08:30:24.765Z,18.47
2019-02-16T08:31:26.974Z,18.47
2019-02-16T08:32:24.856Z,18.46
2019-02-16T08:33:24.791Z,18.47
2019-02-16T08:34:25.116Z,18.47
2019-02-16T08:35:25.258Z,18.48
2019-02-16T08:36:25.141Z,18.48
2019-02-16T08:37:25.145Z,18.47
2019-02-16T08:38:24.805Z,18.48
2019-02-16T08:39:25.282Z,18.48
2019-02-16T08:40:26.083Z,18.47
2019-02-16T08:41:24.966Z,18.47
2019-02-16T08:42:24.819Z,18.48
2019-02-16T08:43:25.009Z,18.47
2019-02-16T08:44:25.457Z,18.48
2019-02-16T08:45:24.792Z,18.48
2019-02-16T08:46:24.744Z,18.48
2019-02-16T08:47:24.999Z,18.48
2019-02-16T08:48:24.863Z,18.49
2019-02-16T08:49:24.885Z,18.48
2019-02-16T08:50:25.127Z,18.48
2019-02-16T08:51:25.045Z,18.48
2019-02-16T08:52:25.287Z,18.48
2019-02-16T08:53:24.750Z,18.47
2019-02-16T08:54:24.840Z,18.49
2019-02-16T08:55:25.576Z,18.48
2019-02-16T08:56:24.694Z,18.48
2019-02-16T08:57:26.678Z,18.5
2019-02-16T08:58:24.834Z,18.49
2019-02-16T08:59:24.951Z,18.49
2019-02-16T09:00:24.883Z,18.5
2019-02-16T09:01:27.802Z,18.49
2019-02-16T09:02:24.918Z,18.48
2019-02-16T09:03:24.690Z,18.48
2019-02-16T09:04:25.253Z,18.48
2019-02-16T09:05:25.240Z,18.48
2019-02-16T09:06:24.879Z,18.48
2019-02-16T09:07:25.277Z,18.48
2019-02-16T09:08:24.798Z,18.48
2019-02-16T09:09:25.335Z,18.49
2019-02-16T09:10:26.523Z,18.49
2019-02-16T09:11:24.742Z,18.5
2019-02-16T09:12:24.927Z,18.5
2019-02-16T09:13:25.633Z,18.51
2019-02-16T09:14:24.706Z,18.5
2019-02-16T09:15:24.807Z,18.51
2019-02-16T09:16:24.736Z,18.49
2019-02-16T09:17:24.798Z,18.5
2019-02-16T09:18:24.905Z,18.51
2019-02-16T09:19:24.806Z,18.5
2019-02-16T09:20:25.121Z,18.5
2019-02-16T09:21:25.138Z,18.54
2019-02-16T09:22:24.743Z,18.53
2019-02-16T09:23:24.801Z,18.54
2019-02-16T09:24:25.223Z,18.54
2019-02-16T09:25:25.070Z,18.55
2019-02-16T09:26:25.086Z,18.56
2019-02-16T09:27:25.186Z,18.58
2019-02-16T09:28:24.756Z,18.58
2019-02-16T09:29:26.683Z,18.59
2019-02-16T09:30:24.927Z,18.6
2019-02-16T09:31:24.739Z,18.59
2019-02-16T09:32:25.224Z,18.57
2019-02-16T09:33:25.199Z,18.58
2019-02-16T09:34:25.040Z,18.59
2019-02-16T09:35:25.146Z,18.6
2019-02-16T09:36:24.983Z,18.6
2019-02-16T09:37:25.036Z,18.62
2019-02-16T09:38:25.083Z,18.64
2019-02-16T09:39:25.860Z,18.65
2019-02-16T09:40:24.770Z,18.65
2019-02-16T09:41:25.076Z,18.65
2019-02-16T09:42:24.974Z,18.66
2019-02-16T09:43:25.138Z,18.67
2019-02-16T09:44:25.054Z,18.68
2019-02-16T09:45:25.344Z,18.69
2019-02-16T09:46:25.199Z,18.69
2019-02-16T09:47:24.954Z,18.7
2019-02-16T09:48:25.130Z,18.71
2019-02-16T09:49:25.363Z,18.71
2019-02-16T09:50:25.102Z,18.72
2019-02-16T09:51:26.680Z,18.72
2019-02-16T09:52:25.122Z,18.72
2019-02-16T09:53:24.763Z,18.72
2019-02-16T09:54:24.735Z,18.72
2019-02-16T09:55:25.401Z,18.72
2019-02-16T09:56:25.406Z,18.71
2019-02-16T09:57:24.990Z,18.71
2019-02-16T09:58:24.797Z,18.69
2019-02-16T09:59:24.780Z,18.71
2019-02-16T10:00:24.884Z,18.69
2019-02-16T10:01:24.948Z,18.69
2019-02-16T10:02:25.117Z,18.7
2019-02-16T10:03:25.409Z,18.7
2019-02-16T10:04:25.135Z,18.69
2019-02-16T10:05:24.962Z,18.69
2019-02-16T10:06:25.596Z,18.7
2019-02-16T10:07:25.986Z,18.7
2019-02-16T10:08:26.688Z,18.7
2019-02-16T10:09:25.117Z,18.7
2019-02-16T10:10:24.891Z,18.7
2019-02-16T10:11:25.169Z,18.7
2019-02-16T10:12:25.020Z,18.71
2019-02-16T10:13:24.588Z,18.71
2019-02-16T10:14:24.712Z,18.72
2019-02-16T10:15:25.125Z,18.71
2019-02-16T10:16:24.735Z,18.7
2019-02-16T10:17:26.332Z,18.7
2019-02-16T10:18:24.941Z,18.7
2019-02-16T10:19:24.944Z,18.7
2019-02-16T10:20:24.963Z,18.71
2019-02-16T10:21:25.167Z,18.71
2019-02-16T10:22:24.792Z,18.71
2019-02-16T10:23:25.074Z,18.71
2019-02-16T10:24:25.220Z,18.72
2019-02-16T10:25:25.543Z,18.73
2019-02-16T10:26:24.727Z,18.72
2019-02-16T10:27:25.114Z,18.71
2019-02-16T10:28:25.536Z,18.7
2019-02-16T10:29:26.894Z,18.69
2019-02-16T10:30:25.235Z,18.7
2019-02-16T10:31:26.582Z,18.7
2019-02-16T10:32:26.873Z,18.69
2019-02-16T10:33:25.164Z,18.67
2019-02-16T10:34:24.984Z,18.69
2019-02-16T10:35:25.205Z,18.69
2019-02-16T10:36:24.934Z,18.68
2019-02-16T10:37:26.578Z,18.68
2019-02-16T10:38:24.887Z,18.68
2019-02-16T10:39:25.410Z,18.67
2019-02-16T10:40:24.818Z,18.68
2019-02-16T10:41:24.942Z,18.68
2019-02-16T10:42:27.946Z,18.69
2019-02-16T10:43:25.013Z,18.68
2019-02-16T10:44:26.803Z,18.7
2019-02-16T10:45:24.774Z,18.7
2019-02-16T10:46:24.957Z,18.7
2019-02-16T10:47:25.078Z,18.72
2019-02-16T10:48:25.165Z,18.72
2019-02-16T10:49:25.850Z,18.72
2019-02-16T10:50:25.999Z,18.72
2019-02-16T10:51:24.881Z,18.72
2019-02-16T10:52:24.860Z,18.72
2019-02-16T10:53:24.906Z,18.72
2019-02-16T10:54:29.928Z,18.72
2019-02-16T10:55:25.002Z,18.72
2019-02-16T10:56:25.223Z,18.72
2019-02-16T10:57:25.028Z,18.72
2019-02-16T10:58:25.215Z,18.72
2019-02-16T10:59:25.394Z,18.73
2019-02-16T11:00:25.269Z,18.73
2019-02-16T11:01:25.129Z,18.73
2019-02-16T11:02:24.793Z,18.73
2019-02-16T11:03:26.656Z,18.73
2019-02-16T11:04:24.903Z,18.72
2019-02-16T11:05:24.761Z,18.72
2019-02-16T11:06:26.680Z,18.72
2019-02-16T11:07:25.019Z,18.7
2019-02-16T11:08:24.913Z,18.72
2019-02-16T11:09:25.216Z,18.74
2019-02-16T11:10:24.902Z,18.74
2019-02-16T11:11:25.250Z,18.75
2019-02-16T11:12:25.124Z,18.74
2019-02-16T11:13:26.126Z,18.75
2019-02-16T11:14:24.795Z,18.75
2019-02-16T11:15:25.046Z,18.75
2019-02-16T11:16:25.050Z,18.77
2019-02-16T11:17:24.740Z,18.76
2019-02-16T11:18:25.071Z,18.77
2019-02-16T11:19:25.079Z,18.77
2019-02-16T11:20:25.117Z,18.78
2019-02-16T11:21:25.014Z,18.78
2019-02-16T11:22:24.663Z,18.78
2019-02-16T11:23:24.843Z,18.78
2019-02-16T11:24:25.244Z,18.78
2019-02-16T11:25:24.983Z,18.79
2019-02-16T11:26:25.168Z,18.79
2019-02-16T11:27:25.822Z,18.8
2019-02-16T11:28:24.951Z,18.8
2019-02-16T11:29:25.048Z,18.8
2019-02-16T11:30:24.847Z,18.8
2019-02-16T11:31:24.733Z,18.8
2019-02-16T11:32:25.797Z,18.8
2019-02-16T11:33:25.611Z,18.79
2019-02-16T11:34:24.562Z,18.8
2019-02-16T11:35:25.016Z,18.8
2019-02-16T11:36:25.218Z,18.81
2019-02-16T11:37:25.171Z,18.8
2019-02-16T11:38:25.023Z,18.82
2019-02-16T11:39:24.916Z,18.82
2019-02-16T11:40:24.811Z,18.84
2019-02-16T11:41:24.914Z,18.84
2019-02-16T11:42:24.812Z,18.86
2019-02-16T11:43:25.062Z,18.87
2019-02-16T11:44:24.908Z,18.85
2019-02-16T11:45:24.713Z,18.84
2019-02-16T11:46:24.858Z,18.84
2019-02-16T11:47:24.793Z,18.85
2019-02-16T11:48:25.217Z,18.85
2019-02-16T11:49:26.535Z,18.86
2019-02-16T11:50:25.123Z,18.85
2019-02-16T11:51:26.619Z,18.86
2019-02-16T11:52:26.889Z,18.86
2019-02-16T11:53:24.962Z,18.86
2019-02-16T11:54:25.703Z,18.87
2019-02-16T11:55:24.891Z,18.86
2019-02-16T11:56:24.835Z,18.86
2019-02-16T11:57:25.302Z,18.86
2019-02-16T11:58:24.801Z,18.85
2019-02-16T11:59:24.911Z,18.86
2019-02-16T12:00:24.819Z,18.87
2019-02-16T12:01:25.054Z,18.86
2019-02-16T12:02:24.570Z,18.86
2019-02-16T12:03:25.275Z,18.84
2019-02-16T12:04:25.041Z,18.84
2019-02-16T12:05:25.120Z,18.84
2019-02-16T12:06:24.748Z,18.84
2019-02-16T12:07:25.360Z,18.83
2019-02-16T12:08:24.948Z,18.82
2019-02-16T12:09:24.897Z,18.82
2019-02-16T12:10:24.744Z,18.82
2019-02-16T12:11:26.661Z,18.81
2019-02-16T12:12:25.187Z,18.8
2019-02-16T12:13:25.258Z,18.8
2019-02-16T12:14:24.932Z,18.8
2019-02-16T12:15:25.095Z,18.78
2019-02-16T12:16:25.996Z,18.78
2019-02-16T12:17:26.705Z,18.78
2019-02-16T12:18:25.161Z,18.77
2019-02-16T12:19:24.795Z,18.76
2019-02-16T12:20:34.213Z,18.76
2019-02-16T12:21:24.790Z,18.76
2019-02-16T12:22:25.329Z,18.74
2019-02-16T12:23:26.672Z,18.74
2019-02-16T12:24:25.277Z,18.73
2019-02-16T12:25:24.804Z,18.73
2019-02-16T12:26:24.868Z,18.74
2019-02-16T12:27:24.874Z,18.73
2019-02-16T12:28:24.866Z,18.72
2019-02-16T12:29:24.686Z,18.71
2019-02-16T12:30:25.041Z,18.71
2019-02-16T12:31:24.804Z,18.71
2019-02-16T12:32:25.013Z,18.7
2019-02-16T12:33:25.070Z,18.72
2019-02-16T12:34:24.884Z,18.69
2019-02-16T12:35:25.026Z,18.7
2019-02-16T12:36:25.510Z,18.68
2019-02-16T12:37:24.706Z,18.67
2019-02-16T12:38:25.523Z,18.67
2019-02-16T12:39:25.156Z,18.66
2019-02-16T12:40:24.658Z,18.67
2019-02-16T12:41:25.219Z,18.66
2019-02-16T12:42:25.070Z,18.66
2019-02-16T12:43:24.977Z,18.66
2019-02-16T12:44:25.342Z,18.65
2019-02-16T12:45:24.654Z,18.65
2019-02-16T12:46:24.717Z,18.65
2019-02-16T12:47:25.041Z,18.63
2019-02-16T12:48:24.874Z,18.63
2019-02-16T12:49:24.808Z,18.62
2019-02-16T12:50:24.974Z,18.61
2019-02-16T12:51:25.028Z,18.61
2019-02-16T12:52:26.511Z,18.63
2019-02-16T12:53:24.869Z,18.61
2019-02-16T12:54:24.934Z,18.61
2019-02-16T12:55:24.759Z,18.61
2019-02-16T12:56:25.105Z,18.62